Estherville, Iowa
Current Conditions -  °F | °C
As of 2:52 PM on Monday 24 Nov 2014 (Local Time) from KEST Reporting Station
Overcast Overcast  
Wind Chill:   Ceiling: 2200
Heat Index: 20°   Visibility: 10mi
Dew Point: 12°   Wind: 26mph
Humidity: 71%   Direction: 310°NW
Pressure: 29.68"   Gusts: 36mph
Location:  43.4°N, 94.84°W
Report Text: KEST 242052Z AUTO 31023G31KT 10SM BKN022 OVC030 M07/M11 A2968 RMK AO2 PK WND 30032/2037 SLP071 T10671111 53029
Loading
Personal Weather Stations






























Interactive Weather Map New forecast layout! Learn more

10-Day Weather Forecast

Advertisements
Track Severe Weather on mobile